Time;durP1;ratioP1;P1;durP2;ratioP2;P2;SDS_P1;SDS_P2;PMS_P1;PMS_P2;Temp;Humidity;BMP_temperature;BMP_pressure;BME280_temperature;BME280_humidity;BME280_pressure;Samples;Min_cycle;Max_cycle;Signal;HPM_P1;HPM_P2
2022/10/20 00:00:20;;;;;;;;;;;14.70;63.20;;;;;;5073510;28;19921;-66
2022/10/20 00:02:46;;;;;;;;;;;14.60;63.20;;;;;;5073507;28;19927;-66
2022/10/20 00:05:11;;;;;;;;;;;14.60;63.20;;;;;;5073817;28;19928;-65
2022/10/20 00:07:37;;;;;;;;;;;14.60;63.20;;;;;;5073759;28;20292;-65
2022/10/20 00:10:02;;;;;;;;;;;14.60;63.10;;;;;;5073411;28;19921;-66
2022/10/20 00:12:28;;;;;;;;;;;14.60;63.20;;;;;;5073459;28;19924;-67
2022/10/20 00:14:53;;;;;;;;;;;14.60;63.10;;;;;;5073312;28;19920;-67
2022/10/20 00:17:19;;;;;;;;;;;14.60;63.10;;;;;;5073218;28;19921;-67
2022/10/20 00:19:46;;;;;;;;;;;14.60;63.10;;;;;;5074726;28;19974;-69
2022/10/20 00:22:12;;;;;;;;;;;14.60;63.20;;;;;;5073164;28;19920;-65
2022/10/20 00:24:38;;;;;;;;;;;14.60;63.10;;;;;;5073127;28;19927;-67
2022/10/20 00:27:03;;;;;;;;;;;14.60;63.00;;;;;;5074340;28;19924;-67
2022/10/20 00:29:29;;;;;;;;;;;14.60;63.10;;;;;;5074132;28;20023;-65
2022/10/20 00:31:54;;;;;;;;;;;14.60;63.10;;;;;;5072670;28;20435;-65
2022/10/20 00:34:20;;;;;;;;;;;14.60;63.00;;;;;;5072880;28;19924;-67
2022/10/20 00:36:45;;;;;;;;;;;14.50;63.00;;;;;;5072927;28;20016;-66
2022/10/20 00:39:11;;;;;;;;;;;14.50;63.00;;;;;;5074358;28;19972;-66
2022/10/20 00:41:36;;;;;;;;;;;14.60;63.00;;;;;;5073108;28;19925;-66
2022/10/20 00:44:22;;;;;;;;;;;14.60;63.00;;;;;;5074020;28;19920;-65
2022/10/20 00:46:47;;;;;;;;;;;14.60;63.00;;;;;;5072878;28;19924;-65
2022/10/20 00:49:15;;;;;;;;;;;14.60;63.00;;;;;;5072950;28;20074;-66
2022/10/20 00:51:41;;;;;;;;;;;14.50;63.00;;;;;;5073828;28;19921;-66
2022/10/20 00:54:09;;;;;;;;;;;14.50;62.90;;;;;;5073762;28;19931;-65
2022/10/20 00:56:38;;;;;;;;;;;14.50;62.90;;;;;;5073007;28;19921;-65
2022/10/20 00:59:03;;;;;;;;;;;14.50;62.90;;;;;;5072283;28;20011;-65
2022/10/20 01:01:29;;;;;;;;;;;14.50;62.90;;;;;;5072408;28;20011;-66
2022/10/20 01:03:55;;;;;;;;;;;14.50;62.90;;;;;;5072313;28;19920;-65
2022/10/20 01:06:21;;;;;;;;;;;14.50;62.90;;;;;;5072574;28;19970;-66
2022/10/20 01:08:47;;;;;;;;;;;14.50;62.90;;;;;;5072220;28;19920;-66
2022/10/20 01:16:46;;;;;;;;;;;14.20;62.70;;;;;;5122522;27;19912;-68
2022/10/20 01:19:23;;;;;;;;;;;14.50;62.90;;;;;;5089914;28;20295;-66
2022/10/20 01:24:31;;;;;;;;;;;14.40;62.80;;;;;;5166174;27;797345;-67
2022/10/20 01:27:16;;;;;;;;;;;14.40;62.80;;;;;;5195518;27;19919;-65
2022/10/20 01:29:46;;;;;;;;;;;14.40;62.80;;;;;;5214124;27;20301;-66
2022/10/20 01:37:34;;;;;;;;;;;14.40;62.80;;;;;;5166067;27;804540;-68
2022/10/20 01:40:08;;;;;;;;;;;14.40;62.80;;;;;;5195412;27;20005;-66
2022/10/20 01:42:36;;;;;;;;;;;14.40;62.80;;;;;;5214381;27;19925;-65
2022/10/20 01:45:04;;;;;;;;;;;14.40;62.80;;;;;;5195287;27;19925;-65
2022/10/20 01:47:31;;;;;;;;;;;14.40;62.80;;;;;;5195873;27;19918;-65
2022/10/20 01:49:57;;;;;;;;;;;14.40;62.80;;;;;;5214389;27;19918;-65
2022/10/20 01:52:22;;;;;;;;;;;14.40;62.80;;;;;;5214388;27;19922;-67
2022/10/20 01:54:48;;;;;;;;;;;14.40;62.70;;;;;;5195147;27;20004;-65
2022/10/20 02:00:00;;;;;;;;;;;14.40;62.80;;;;;;5122466;27;19912;-65
2022/10/20 02:02:33;;;;;;;;;;;14.50;62.80;;;;;;5088934;28;19943;-68
2022/10/20 02:05:08;;;;;;;;;;;14.30;62.70;;;;;;5087998;28;19921;-66
2022/10/20 02:07:34;;;;;;;;;;;14.30;62.70;;;;;;5088471;28;19920;-66
2022/10/20 02:10:19;;;;;;;;;;;14.20;62.60;;;;;;5088763;28;19920;-67
2022/10/20 02:12:48;;;;;;;;;;;14.30;63.40;;;;;;5088206;28;19959;-66
2022/10/20 02:15:16;;;;;;;;;;;14.30;62.70;;;;;;5088391;28;20011;-65
2022/10/20 02:17:44;;;;;;;;;;;14.20;62.60;;;;;;5088476;28;19921;-65
2022/10/20 02:20:09;;;;;;;;;;;14.30;62.70;;;;;;5089965;28;20435;-65
2022/10/20 02:22:36;;;;;;;;;;;14.30;62.70;;;;;;5088231;28;19963;-67
2022/10/20 02:25:02;;;;;;;;;;;14.30;62.70;;;;;;5089421;28;20323;-66
2022/10/20 02:27:31;;;;;;;;;;;14.30;62.60;;;;;;5088060;28;19927;-65
2022/10/20 02:30:00;;;;;;;;;;;14.30;62.70;;;;;;5088174;28;20179;-67
2022/10/20 02:32:26;;;;;;;;;;;14.30;62.70;;;;;;5089433;28;20379;-66
2022/10/20 02:34:51;;;;;;;;;;;14.20;62.60;;;;;;5088373;28;19920;-65
2022/10/20 02:37:17;;;;;;;;;;;14.20;62.60;;;;;;5089226;28;20467;-66
2022/10/20 02:39:42;;;;;;;;;;;14.20;62.60;;;;;;5089029;28;19944;-65
2022/10/20 02:42:08;;;;;;;;;;;14.20;62.60;;;;;;5088523;28;19943;-65
2022/10/20 02:44:34;;;;;;;;;;;14.20;62.60;;;;;;5088528;28;20308;-66
2022/10/20 02:46:59;;;;;;;;;;;14.20;62.60;;;;;;5087901;28;19940;-66
2022/10/20 02:49:26;;;;;;;;;;;14.20;62.50;;;;;;5087823;28;19920;-68
2022/10/20 02:51:51;;;;;;;;;;;14.20;62.60;;;;;;5087688;28;19926;-67
2022/10/20 02:54:17;;;;;;;;;;;14.20;62.50;;;;;;5087661;28;20007;-66
2022/10/20 02:56:43;;;;;;;;;;;14.20;62.50;;;;;;5087896;28;19920;-67
2022/10/20 02:59:12;;;;;;;;;;;14.20;62.60;;;;;;5088493;28;19925;-66
2022/10/20 03:01:38;;;;;;;;;;;14.10;62.50;;;;;;5087778;28;19967;-65
2022/10/20 03:04:03;;;;;;;;;;;14.20;62.60;;;;;;5087739;28;20403;-65
2022/10/20 03:06:29;;;;;;;;;;;14.10;62.50;;;;;;5087711;28;19967;-65
2022/10/20 03:08:54;;;;;;;;;;;14.20;62.60;;;;;;5088638;28;20011;-66
2022/10/20 03:11:20;;;;;;;;;;;14.10;62.50;;;;;;5073255;28;19978;-66
2022/10/20 03:13:45;;;;;;;;;;;14.10;62.50;;;;;;5073720;28;19974;-67
2022/10/20 03:16:11;;;;;;;;;;;14.20;62.50;;;;;;5074068;28;20032;-67
2022/10/20 03:18:36;;;;;;;;;;;14.10;62.50;;;;;;5074968;28;20434;-68
2022/10/20 03:21:02;;;;;;;;;;;14.10;62.50;;;;;;5074953;28;19921;-65
2022/10/20 03:23:27;;;;;;;;;;;14.10;62.50;;;;;;5073870;28;19921;-65
2022/10/20 03:25:59;;;;;;;;;;;14.10;62.50;;;;;;5073802;28;19920;-67
2022/10/20 03:28:24;;;;;;;;;;;14.10;62.50;;;;;;5073757;28;19920;-65
2022/10/20 03:30:50;;;;;;;;;;;14.10;62.50;;;;;;5073452;28;20265;-67
2022/10/20 03:33:15;;;;;;;;;;;14.10;62.50;;;;;;5073898;28;19936;-66
2022/10/20 03:35:41;;;;;;;;;;;14.10;62.50;;;;;;5073017;28;19928;-67
2022/10/20 03:38:06;;;;;;;;;;;14.10;62.50;;;;;;5073621;28;20352;-67
2022/10/20 03:40:32;;;;;;;;;;;14.10;62.50;;;;;;5073554;28;20007;-68
2022/10/20 03:42:57;;;;;;;;;;;14.10;62.50;;;;;;5074428;28;20288;-65
2022/10/20 03:45:23;;;;;;;;;;;14.00;62.40;;;;;;5074453;28;19928;-65
2022/10/20 03:47:48;;;;;;;;;;;14.10;62.50;;;;;;5073183;28;20300;-66
2022/10/20 03:50:14;;;;;;;;;;;14.10;62.50;;;;;;5073377;28;19986;-67
2022/10/20 03:52:40;;;;;;;;;;;14.10;62.40;;;;;;5073424;28;20419;-66
2022/10/20 03:55:05;;;;;;;;;;;14.10;62.50;;;;;;5072900;28;20364;-65
2022/10/20 03:57:31;;;;;;;;;;;14.00;62.40;;;;;;5073006;28;19927;-65
2022/10/20 03:59:56;;;;;;;;;;;14.00;62.40;;;;;;5073734;28;19935;-66
2022/10/20 04:05:02;;;;;;;;;;;14.00;62.40;;;;;;5122916;27;19913;-65
2022/10/20 04:07:27;;;;;;;;;;;14.70;62.70;;;;;;5088566;28;20398;-68
2022/10/20 04:09:53;;;;;;;;;;;14.00;62.30;;;;;;5088514;28;19920;-66
2022/10/20 04:12:18;;;;;;;;;;;14.00;62.30;;;;;;5088438;28;19928;-67
2022/10/20 04:14:44;;;;;;;;;;;14.00;62.30;;;;;;5089876;28;19931;-65
2022/10/20 04:17:10;;;;;;;;;;;14.00;62.30;;;;;;5088509;28;19927;-66
2022/10/20 04:19:35;;;;;;;;;;;14.00;62.40;;;;;;5088381;28;19920;-66
2022/10/20 04:22:01;;;;;;;;;;;14.00;62.40;;;;;;5088364;28;19921;-65
2022/10/20 04:24:26;;;;;;;;;;;13.90;62.30;;;;;;5088195;28;19924;-66
2022/10/20 04:26:52;;;;;;;;;;;13.90;62.30;;;;;;5088220;28;19927;-66
2022/10/20 04:29:17;;;;;;;;;;;14.00;62.30;;;;;;5088607;28;19981;-66
2022/10/20 04:31:43;;;;;;;;;;;13.90;62.30;;;;;;5089387;28;20368;-68
2022/10/20 04:34:08;;;;;;;;;;;14.00;62.40;;;;;;5089423;28;19920;-65
2022/10/20 04:36:34;;;;;;;;;;;14.00;62.30;;;;;;5088039;28;20500;-65
2022/10/20 04:38:59;;;;;;;;;;;13.90;62.20;;;;;;5088540;28;19927;-65
2022/10/20 04:41:25;;;;;;;;;;;13.90;62.20;;;;;;5087851;28;20414;-65
2022/10/20 04:43:51;;;;;;;;;;;13.90;62.30;;;;;;5089091;28;20025;-66
2022/10/20 04:46:17;;;;;;;;;;;13.90;62.20;;;;;;5087843;28;20133;-67
2022/10/20 04:48:43;;;;;;;;;;;13.90;62.20;;;;;;5088139;28;19928;-67
2022/10/20 04:51:10;;;;;;;;;;;13.90;62.30;;;;;;5089140;28;19943;-65
2022/10/20 04:53:36;;;;;;;;;;;13.90;62.30;;;;;;5087716;28;19921;-68
2022/10/20 04:56:02;;;;;;;;;;;13.90;62.30;;;;;;5121776;28;19920;-67
2022/10/20 04:58:28;;;;;;;;;;;13.90;62.30;;;;;;5088877;28;20189;-66
2022/10/20 05:00:59;;;;;;;;;;;13.90;62.20;;;;;;5089113;28;19920;-65
2022/10/20 05:03:24;;;;;;;;;;;13.90;62.20;;;;;;5088634;28;19928;-66
2022/10/20 05:05:50;;;;;;;;;;;13.90;62.20;;;;;;5087495;28;20019;-66
2022/10/20 05:08:15;;;;;;;;;;;13.90;62.20;;;;;;5087450;28;19927;-65
2022/10/20 05:10:41;;;;;;;;;;;13.80;62.10;;;;;;5087431;28;19920;-67
2022/10/20 05:13:06;;;;;;;;;;;13.90;62.20;;;;;;5087543;28;19921;-66
2022/10/20 05:15:32;;;;;;;;;;;13.90;62.20;;;;;;5078466;28;20295;-66
2022/10/20 05:17:57;;;;;;;;;;;13.90;62.10;;;;;;5073786;28;19967;-67
2022/10/20 05:20:23;;;;;;;;;;;13.80;62.10;;;;;;5074088;28;19927;-68
2022/10/20 05:22:48;;;;;;;;;;;13.80;62.20;;;;;;5074854;28;20395;-65
2022/10/20 05:25:14;;;;;;;;;;;13.80;62.20;;;;;;5073695;28;19925;-66
2022/10/20 05:27:39;;;;;;;;;;;13.80;62.20;;;;;;5074826;28;19921;-65
2022/10/20 05:30:05;;;;;;;;;;;13.80;62.20;;;;;;5073582;28;19927;-66
2022/10/20 05:32:31;;;;;;;;;;;13.80;62.20;;;;;;5074973;28;19920;-65
2022/10/20 05:34:56;;;;;;;;;;;13.80;62.10;;;;;;5073898;28;20041;-67
2022/10/20 05:37:22;;;;;;;;;;;13.80;62.10;;;;;;5073709;28;19921;-65
2022/10/20 05:39:47;;;;;;;;;;;13.80;62.10;;;;;;5107643;28;19924;-66
2022/10/20 05:42:13;;;;;;;;;;;13.80;62.20;;;;;;5107502;28;20334;-67
2022/10/20 05:44:38;;;;;;;;;;;13.80;62.20;;;;;;5107144;28;19925;-65
2022/10/20 05:47:04;;;;;;;;;;;13.80;62.90;;;;;;5073291;28;19921;-66
2022/10/20 05:49:29;;;;;;;;;;;13.70;62.10;;;;;;5073178;28;19921;-65
2022/10/20 05:51:55;;;;;;;;;;;13.70;62.10;;;;;;5073228;28;19926;-67
2022/10/20 05:54:20;;;;;;;;;;;13.80;62.10;;;;;;5073361;28;19925;-67
2022/10/20 05:56:46;;;;;;;;;;;13.80;62.20;;;;;;5073431;28;20325;-66
2022/10/20 05:59:12;;;;;;;;;;;13.80;62.10;;;;;;5074214;28;20471;-67
2022/10/20 06:01:46;;;;;;;;;;;13.70;62.10;;;;;;5073282;28;19921;-65
2022/10/20 06:04:13;;;;;;;;;;;13.70;62.00;;;;;;5073925;28;19978;-65
2022/10/20 06:06:38;;;;;;;;;;;13.80;62.10;;;;;;5072857;28;20400;-68
2022/10/20 06:09:05;;;;;;;;;;;13.80;62.20;;;;;;5106704;28;19925;-67
2022/10/20 06:11:30;;;;;;;;;;;13.70;62.00;;;;;;5074519;28;20019;-66
2022/10/20 06:13:56;;;;;;;;;;;13.70;62.00;;;;;;5072961;28;20081;-65
2022/10/20 06:16:23;;;;;;;;;;;13.70;62.10;;;;;;5106676;28;20291;-65
2022/10/20 06:18:49;;;;;;;;;;;13.70;62.00;;;;;;5072963;28;19928;-66
2022/10/20 06:21:17;;;;;;;;;;;13.70;62.10;;;;;;5072932;28;19971;-65
2022/10/20 06:23:43;;;;;;;;;;;13.70;62.10;;;;;;5072649;28;20276;-65
2022/10/20 06:26:09;;;;;;;;;;;13.70;62.00;;;;;;5073188;28;19974;-65
2022/10/20 06:28:36;;;;;;;;;;;13.70;62.00;;;;;;5072050;28;19924;-67
2022/10/20 06:31:09;;;;;;;;;;;13.70;62.00;;;;;;5072346;28;19920;-66
2022/10/20 06:33:34;;;;;;;;;;;13.70;62.00;;;;;;5072666;28;20274;-68
2022/10/20 06:36:00;;;;;;;;;;;13.60;62.00;;;;;;5072556;28;20034;-65
2022/10/20 06:38:26;;;;;;;;;;;13.70;62.00;;;;;;5072418;28;19921;-67
2022/10/20 06:40:51;;;;;;;;;;;13.70;62.00;;;;;;5073520;28;19920;-67
2022/10/20 06:43:17;;;;;;;;;;;13.70;62.00;;;;;;5071335;28;19925;-65
2022/10/20 06:45:42;;;;;;;;;;;13.70;62.00;;;;;;5072002;28;19920;-65
2022/10/20 06:48:08;;;;;;;;;;;13.60;62.00;;;;;;5072077;28;19931;-65
2022/10/20 06:50:34;;;;;;;;;;;13.60;62.00;;;;;;5073197;28;19948;-67
2022/10/20 06:52:59;;;;;;;;;;;13.60;62.00;;;;;;5072304;28;20315;-65
2022/10/20 06:55:25;;;;;;;;;;;13.60;62.00;;;;;;5072137;28;19921;-66
2022/10/20 06:57:50;;;;;;;;;;;13.70;62.10;;;;;;5072493;28;20348;-66
2022/10/20 07:00:16;;;;;;;;;;;13.60;62.00;;;;;;5071661;28;20414;-67
2022/10/20 07:02:41;;;;;;;;;;;13.60;62.00;;;;;;5071459;28;19920;-65
2022/10/20 07:05:07;;;;;;;;;;;13.60;62.00;;;;;;5071724;28;19931;-66
2022/10/20 07:07:32;;;;;;;;;;;13.60;62.00;;;;;;5073055;28;19927;-67
2022/10/20 07:09:58;;;;;;;;;;;13.60;62.00;;;;;;5071708;28;19927;-67
2022/10/20 07:12:23;;;;;;;;;;;13.60;62.00;;;;;;5071555;28;19925;-65
2022/10/20 07:14:49;;;;;;;;;;;13.60;62.70;;;;;;5071824;28;19920;-67
2022/10/20 07:17:14;;;;;;;;;;;13.60;62.00;;;;;;5072933;28;19982;-67
2022/10/20 07:19:40;;;;;;;;;;;13.60;62.00;;;;;;5072972;28;20419;-67
2022/10/20 07:22:05;;;;;;;;;;;13.60;62.00;;;;;;5071449;28;19921;-67
2022/10/20 07:24:31;;;;;;;;;;;13.60;62.80;;;;;;5072714;28;19920;-66
2022/10/20 07:26:56;;;;;;;;;;;13.60;62.00;;;;;;5071612;28;19932;-65
2022/10/20 07:29:22;;;;;;;;;;;13.40;61.90;;;;;;5073119;28;19973;-68
2022/10/20 07:31:47;;;;;;;;;;;13.60;62.00;;;;;;5071201;28;19982;-66
2022/10/20 07:34:14;;;;;;;;;;;13.60;62.10;;;;;;5053965;28;19943;-66
2022/10/20 07:36:43;;;;;;;;;;;13.60;62.00;;;;;;5072634;28;19956;-67
2022/10/20 07:39:09;;;;;;;;;;;14.40;62.50;;;;;;5071004;28;19920;-66
2022/10/20 07:41:36;;;;;;;;;;;13.60;62.10;;;;;;5071370;28;20364;-65
2022/10/20 07:44:01;;;;;;;;;;;13.60;62.10;;;;;;5072398;28;20380;-65
2022/10/20 07:46:27;;;;;;;;;;;13.50;62.00;;;;;;5071068;28;19925;-66
2022/10/20 07:48:52;;;;;;;;;;;13.60;62.00;;;;;;5071422;28;19927;-66
2022/10/20 07:54:02;;;;;;;;;;;13.60;62.10;;;;;;5122908;27;19919;-65
2022/10/20 07:56:28;;;;;;;;;;;13.70;62.10;;;;;;5088630;28;20025;-66
2022/10/20 07:58:54;;;;;;;;;;;13.60;62.00;;;;;;5088504;28;19927;-67
2022/10/20 08:01:20;;;;;;;;;;;13.60;62.00;;;;;;5088508;28;19921;-65
2022/10/20 08:03:46;;;;;;;;;;;13.60;62.10;;;;;;5088778;28;19920;-65
2022/10/20 08:06:11;;;;;;;;;;;13.60;62.10;;;;;;5088448;28;20563;-66
2022/10/20 08:08:37;;;;;;;;;;;13.60;62.10;;;;;;5089710;28;19920;-65
2022/10/20 08:11:02;;;;;;;;;;;13.70;62.10;;;;;;5089818;28;19927;-67
2022/10/20 08:13:28;;;;;;;;;;;13.50;62.10;;;;;;5089598;28;19924;-65
2022/10/20 08:15:54;;;;;;;;;;;13.60;62.10;;;;;;5088550;28;19920;-65
2022/10/20 08:18:19;;;;;;;;;;;13.60;62.10;;;;;;5088661;28;20360;-65
2022/10/20 08:20:45;;;;;;;;;;;13.60;62.10;;;;;;5122652;28;19920;-65
2022/10/20 08:23:11;;;;;;;;;;;13.60;62.10;;;;;;5088415;28;19921;-65
2022/10/20 08:25:37;;;;;;;;;;;13.60;62.10;;;;;;5088036;28;19920;-65
2022/10/20 08:28:02;;;;;;;;;;;13.60;62.10;;;;;;5122195;28;19947;-65
2022/10/20 08:30:28;;;;;;;;;;;13.60;62.20;;;;;;5089239;28;19974;-65
2022/10/20 08:32:53;;;;;;;;;;;13.60;62.10;;;;;;5122335;28;19924;-67
2022/10/20 08:35:19;;;;;;;;;;;13.60;62.10;;;;;;5087949;28;20375;-67
2022/10/20 08:37:45;;;;;;;;;;;13.60;62.20;;;;;;5089228;28;19920;-65
2022/10/20 08:40:15;;;;;;;;;;;13.60;62.20;;;;;;5087818;28;19927;-65
2022/10/20 08:42:43;;;;;;;;;;;13.60;62.20;;;;;;5087793;28;19956;-65
2022/10/20 08:45:13;;;;;;;;;;;13.60;62.20;;;;;;5087910;28;19955;-67
2022/10/20 08:47:39;;;;;;;;;;;13.60;62.20;;;;;;5121711;28;19959;-65
2022/10/20 08:50:08;;;;;;;;;;;13.60;62.20;;;;;;5087561;28;19968;-67
2022/10/20 08:52:35;;;;;;;;;;;13.60;62.20;;;;;;5088711;28;20277;-65
2022/10/20 08:55:02;;;;;;;;;;;13.70;62.30;;;;;;5088694;28;20016;-66
2022/10/20 08:57:30;;;;;;;;;;;13.60;62.30;;;;;;5088826;28;19920;-67
2022/10/20 09:00:06;;;;;;;;;;;13.60;62.20;;;;;;5088530;28;19966;-66
2022/10/20 09:02:33;;;;;;;;;;;13.70;62.30;;;;;;5088682;28;19942;-65
2022/10/20 09:04:59;;;;;;;;;;;13.60;62.30;;;;;;5075893;28;19920;-67
2022/10/20 09:07:30;;;;;;;;;;;13.60;62.20;;;;;;5073757;28;19921;-67
2022/10/20 09:10:03;;;;;;;;;;;13.70;62.30;;;;;;5074016;28;19920;-66
2022/10/20 09:12:31;;;;;;;;;;;13.70;62.30;;;;;;5073799;28;19924;-66
2022/10/20 09:14:56;;;;;;;;;;;13.60;62.30;;;;;;5073658;28;19921;-68
2022/10/20 09:17:22;;;;;;;;;;;13.70;62.30;;;;;;5073895;28;19928;-68
2022/10/20 09:19:50;;;;;;;;;;;13.70;62.40;;;;;;5073996;28;20003;-67
2022/10/20 09:22:18;;;;;;;;;;;13.70;62.40;;;;;;5073577;28;20380;-68
2022/10/20 09:24:44;;;;;;;;;;;13.70;62.40;;;;;;5073722;28;19925;-67
2022/10/20 09:27:30;;;;;;;;;;;13.70;62.40;;;;;;5074689;28;19920;-68
2022/10/20 09:29:55;;;;;;;;;;;13.70;62.40;;;;;;5073462;28;20445;-69
2022/10/20 09:32:36;;;;;;;;;;;13.70;62.40;;;;;;5074576;28;19924;-68
2022/10/20 09:35:21;;;;;;;;;;;13.70;62.40;;;;;;5073276;28;19921;-67
2022/10/20 09:37:56;;;;;;;;;;;13.70;62.40;;;;;;5074319;28;19928;-68
2022/10/20 09:40:23;;;;;;;;;;;13.70;62.40;;;;;;5073120;28;19928;-67
2022/10/20 09:42:51;;;;;;;;;;;13.70;62.40;;;;;;5073184;28;19958;-69
2022/10/20 09:48:00;;;;;;;;;;;13.70;62.50;;;;;;5166018;27;804723;-67
2022/10/20 09:50:27;;;;;;;;;;;13.70;62.50;;;;;;5195306;27;19925;-66
2022/10/20 09:52:53;;;;;;;;;;;13.70;62.60;;;;;;5195714;27;20120;-67
2022/10/20 09:57:59;;;;;;;;;;;13.70;62.60;;;;;;5165737;27;814227;-65
2022/10/20 10:00:30;;;;;;;;;;;13.70;62.60;;;;;;5214440;27;20443;-65
2022/10/20 10:03:06;;;;;;;;;;;13.80;62.70;;;;;;5195722;27;20184;-66
2022/10/20 10:05:32;;;;;;;;;;;13.70;62.60;;;;;;5195380;27;19929;-66
2022/10/20 10:07:58;;;;;;;;;;;13.80;62.70;;;;;;5195368;27;19918;-66
2022/10/20 10:10:25;;;;;;;;;;;13.80;62.80;;;;;;5195569;27;19940;-66
2022/10/20 10:12:51;;;;;;;;;;;13.80;62.80;;;;;;5214168;27;20341;-65
2022/10/20 10:15:26;;;;;;;;;;;13.70;62.70;;;;;;5214211;27;19918;-66
2022/10/20 10:17:51;;;;;;;;;;;13.80;62.80;;;;;;5194956;27;19930;-67
2022/10/20 10:23:15;;;;;;;;;;;13.80;62.70;;;;;;5166205;27;798814;-66
2022/10/20 10:25:41;;;;;;;;;;;13.80;62.80;;;;;;5195343;27;19925;-67
2022/10/20 10:28:28;;;;;;;;;;;13.90;62.80;;;;;;5195333;27;19918;-67
2022/10/20 10:31:13;;;;;;;;;;;13.90;62.80;;;;;;5178383;27;19962;-65
2022/10/20 10:33:39;;;;;;;;;;;13.80;62.70;;;;;;5195285;27;19918;-65
2022/10/20 10:36:09;;;;;;;;;;;13.90;62.90;;;;;;5195655;27;20258;-65
2022/10/20 10:38:35;;;;;;;;;;;14.00;62.90;;;;;;5214072;27;19973;-66
2022/10/20 10:46:25;;;;;;;;;;;14.00;62.90;;;;;;5122926;27;19919;-65
2022/10/20 10:48:58;;;;;;;;;;;13.90;62.70;;;;;;5088543;28;20300;-65
2022/10/20 10:51:44;;;;;;;;;;;13.90;62.70;;;;;;5088896;28;20356;-65
2022/10/20 10:54:15;;;;;;;;;;;13.90;62.80;;;;;;5088581;28;20011;-65
2022/10/20 10:56:46;;;;;;;;;;;13.90;63.00;;;;;;5088499;28;19927;-65
2022/10/20 10:59:19;;;;;;;;;;;13.90;63.10;;;;;;5088340;28;19920;-65
2022/10/20 11:04:50;;;;;;;;;;;14.00;63.10;;;;;;5122769;27;19912;-65
2022/10/20 11:07:35;;;;;;;;;;;14.00;63.10;;;;;;5088606;28;20402;-65
2022/10/20 11:10:06;;;;;;;;;;;14.00;63.10;;;;;;5088501;28;19920;-65
2022/10/20 11:12:51;;;;;;;;;;;14.00;63.20;;;;;;5088719;28;19970;-65
2022/10/20 11:15:37;;;;;;;;;;;13.90;63.00;;;;;;5088229;28;19966;-65
2022/10/20 11:18:22;;;;;;;;;;;14.00;63.10;;;;;;5088526;28;19986;-65
2022/10/20 11:21:08;;;;;;;;;;;14.00;63.20;;;;;;5088036;28;19927;-68
2022/10/20 11:28:56;;;;;;;;;;;14.00;63.20;;;;;;5122446;27;19913;-65
2022/10/20 11:31:32;;;;;;;;;;;14.00;63.20;;;;;;5088569;28;20380;-66
2022/10/20 11:34:02;;;;;;;;;;;14.00;63.30;;;;;;5088797;28;19931;-66
2022/10/20 11:36:31;;;;;;;;;;;14.00;63.30;;;;;;5122573;27;19960;-67
2022/10/20 11:38:56;;;;;;;;;;;14.00;63.30;;;;;;5088051;28;20471;-64
2022/10/20 11:41:30;;;;;;;;;;;14.00;63.40;;;;;;5089581;28;20230;-69
2022/10/20 11:43:58;;;;;;;;;;;14.10;63.50;;;;;;5088628;28;20269;-67
2022/10/20 11:46:29;;;;;;;;;;;14.10;63.50;;;;;;5088528;28;19924;-67
2022/10/20 11:48:55;;;;;;;;;;;14.10;63.50;;;;;;5089646;28;19963;-65
2022/10/20 11:51:40;;;;;;;;;;;14.10;63.50;;;;;;5088274;28;20359;-65
2022/10/20 11:57:08;;;;;;;;;;;14.10;63.60;;;;;;5122872;27;19981;-66
2022/10/20 11:59:54;;;;;;;;;;;14.10;63.60;;;;;;5088327;28;20410;-67
2022/10/20 12:02:39;;;;;;;;;;;14.00;63.60;;;;;;5088602;28;19920;-65
2022/10/20 12:08:04;;;;;;;;;;;14.10;63.70;;;;;;5166091;27;805737;-68
2022/10/20 12:13:28;;;;;;;;;;;14.10;63.80;;;;;;5122167;27;19919;-67
2022/10/20 12:15:53;;;;;;;;;;;14.00;63.80;;;;;;5088212;28;20265;-65
2022/10/20 12:21:00;;;;;;;;;;;14.10;64.00;;;;;;5122895;27;19913;-65
2022/10/20 12:23:47;;;;;;;;;;;14.10;64.00;;;;;;5088569;28;20391;-65
2022/10/20 12:29:28;;;;;;;;;;;14.10;64.10;;;;;;5122933;27;19913;-68
2022/10/20 12:32:13;;;;;;;;;;;14.10;64.10;;;;;;5088852;28;20007;-68
2022/10/20 12:34:39;;;;;;;;;;;14.10;64.30;;;;;;5088346;28;20005;-65
2022/10/20 12:37:07;;;;;;;;;;;14.10;64.30;;;;;;5088718;28;19924;-65
2022/10/20 12:39:33;;;;;;;;;;;14.10;64.30;;;;;;5089738;28;20265;-65
2022/10/20 12:42:00;;;;;;;;;;;14.20;64.40;;;;;;5088225;28;19925;-68
2022/10/20 12:44:27;;;;;;;;;;;14.10;64.30;;;;;;5088677;28;19920;-65
2022/10/20 12:47:01;;;;;;;;;;;14.10;64.40;;;;;;5088424;28;19924;-65
2022/10/20 12:49:31;;;;;;;;;;;14.00;64.50;;;;;;5088309;28;19978;-67
2022/10/20 12:51:57;;;;;;;;;;;14.10;64.50;;;;;;5088503;28;19921;-68
2022/10/20 12:54:27;;;;;;;;;;;14.10;64.60;;;;;;5089497;28;20102;-66
2022/10/20 12:56:56;;;;;;;;;;;14.10;64.70;;;;;;5088047;28;19928;-66
2022/10/20 12:59:33;;;;;;;;;;;14.10;64.70;;;;;;5088078;28;19921;-65
2022/10/20 13:02:18;;;;;;;;;;;14.10;64.70;;;;;;5088282;28;19974;-66
2022/10/20 13:05:01;;;;;;;;;;;14.20;64.90;;;;;;5088070;28;19920;-66
2022/10/20 13:07:47;;;;;;;;;;;14.20;64.90;;;;;;5087999;28;19924;-66
2022/10/20 13:10:32;;;;;;;;;;;14.20;65.00;;;;;;5088017;28;19920;-66
2022/10/20 13:18:29;;;;;;;;;;;14.10;65.00;;;;;;5105770;27;19912;-68
2022/10/20 13:23:43;;;;;;;;;;;14.20;65.10;;;;;;5122826;27;19912;-67
2022/10/20 13:26:27;;;;;;;;;;;14.30;65.20;;;;;;5088645;28;19927;-68
2022/10/20 13:28:54;;;;;;;;;;;14.20;65.20;;;;;;5088803;28;19931;-66
2022/10/20 13:31:39;;;;;;;;;;;14.20;65.20;;;;;;5088515;28;19997;-68
2022/10/20 13:34:25;;;;;;;;;;;14.20;65.30;;;;;;5088197;28;20402;-69
2022/10/20 13:36:56;;;;;;;;;;;14.20;65.50;;;;;;5088489;28;20007;-67
2022/10/20 13:47:39;;;;;;;;;;;13.90;65.60;;;;;;5122557;27;19913;-67
2022/10/20 13:50:08;;;;;;;;;;;14.20;65.70;;;;;;5088742;28;20050;-68
2022/10/20 13:52:36;;;;;;;;;;;14.20;65.80;;;;;;5088573;28;19974;-68
2022/10/20 13:55:04;;;;;;;;;;;14.20;65.90;;;;;;5088770;28;20261;-67
2022/10/20 13:57:31;;;;;;;;;;;14.20;66.00;;;;;;5089825;28;19928;-67
2022/10/20 13:59:59;;;;;;;;;;;14.30;66.10;;;;;;5088270;28;20394;-68
2022/10/20 14:02:26;;;;;;;;;;;14.20;66.10;;;;;;5088636;28;19920;-68
2022/10/20 14:05:10;;;;;;;;;;;14.20;66.10;;;;;;5089505;28;19920;-68
2022/10/20 14:07:37;;;;;;;;;;;14.20;66.20;;;;;;5088604;28;19921;-68
2022/10/20 14:10:02;;;;;;;;;;;14.20;66.20;;;;;;5088230;28;19924;-67
2022/10/20 14:12:29;;;;;;;;;;;14.20;66.40;;;;;;5090007;28;19965;-67
2022/10/20 14:14:55;;;;;;;;;;;14.30;66.40;;;;;;5089253;28;20036;-67
2022/10/20 14:17:22;;;;;;;;;;;14.20;66.40;;;;;;5088490;28;19956;-67
2022/10/20 14:19:48;;;;;;;;;;;14.30;66.40;;;;;;5087999;28;20065;-68
2022/10/20 14:24:55;;;;;;;;;;;14.20;66.60;;;;;;5122812;27;19913;-67
2022/10/20 14:27:23;;;;;;;;;;;14.20;66.60;;;;;;5088690;28;19928;-67
2022/10/20 14:29:50;;;;;;;;;;;14.30;66.80;;;;;;5088885;28;20425;-67
2022/10/20 14:32:17;;;;;;;;;;;14.20;66.70;;;;;;5123035;28;19926;-67
2022/10/20 14:35:00;;;;;;;;;;;14.30;67.50;;;;;;5089899;28;20269;-67
2022/10/20 14:37:29;;;;;;;;;;;14.30;66.90;;;;;;5088749;28;20253;-68
2022/10/20 14:39:54;;;;;;;;;;;14.20;67.00;;;;;;5088337;28;19965;-67
2022/10/20 14:42:22;;;;;;;;;;;14.20;66.90;;;;;;5089593;28;19921;-67
2022/10/20 14:44:48;;;;;;;;;;;14.30;67.00;;;;;;5089589;28;19931;-67
2022/10/20 14:47:14;;;;;;;;;;;14.30;66.90;;;;;;5088732;28;19967;-67
2022/10/20 14:49:41;;;;;;;;;;;14.30;67.20;;;;;;5088501;28;20288;-67
2022/10/20 14:52:22;;;;;;;;;;;14.30;67.20;;;;;;5088157;28;19921;-67
2022/10/20 14:54:49;;;;;;;;;;;14.30;67.20;;;;;;5089353;28;19926;-67
2022/10/20 15:00:01;;;;;;;;;;;14.30;67.30;;;;;;5122946;27;19912;-67
2022/10/20 15:02:29;;;;;;;;;;;14.30;67.30;;;;;;5088627;28;19928;-67
2022/10/20 15:04:54;;;;;;;;;;;14.30;67.30;;;;;;5088593;28;20061;-68
2022/10/20 15:07:22;;;;;;;;;;;14.30;67.30;;;;;;5089673;28;20015;-67
2022/10/20 15:09:49;;;;;;;;;;;14.30;67.50;;;;;;5089725;28;19931;-67
2022/10/20 15:12:19;;;;;;;;;;;14.30;67.40;;;;;;5122771;28;19921;-67
2022/10/20 15:14:47;;;;;;;;;;;14.40;67.50;;;;;;5088319;28;19926;-67
2022/10/20 15:17:28;;;;;;;;;;;14.30;67.40;;;;;;5088276;28;19935;-67
2022/10/20 15:19:54;;;;;;;;;;;14.30;67.50;;;;;;5088552;28;19946;-67
2022/10/20 15:22:19;;;;;;;;;;;14.30;67.50;;;;;;5088165;28;20011;-67
2022/10/20 15:24:45;;;;;;;;;;;14.30;67.70;;;;;;5088164;28;19920;-68
2022/10/20 15:27:14;;;;;;;;;;;14.30;67.70;;;;;;5089392;28;20015;-67
2022/10/20 15:29:45;;;;;;;;;;;14.30;67.80;;;;;;5089304;28;19921;-68
2022/10/20 15:32:10;;;;;;;;;;;14.30;67.90;;;;;;5088357;28;19920;-68
2022/10/20 15:34:36;;;;;;;;;;;14.30;67.80;;;;;;5088028;28;19970;-68
2022/10/20 15:37:02;;;;;;;;;;;14.40;67.90;;;;;;5089743;28;19924;-67
2022/10/20 15:39:27;;;;;;;;;;;14.40;68.00;;;;;;5121938;28;19981;-67
2022/10/20 15:41:53;;;;;;;;;;;14.40;68.10;;;;;;5089112;28;20372;-67